createdAt,value
2023-05-21T00:01:45.757Z,2.17
2023-05-21T00:04:15.712Z,2.22
2023-05-21T00:06:45.100Z,1.70
2023-05-21T00:09:13.747Z,1.73
2023-05-21T00:11:41.760Z,1.90
2023-05-21T00:14:09.839Z,2.00
2023-05-21T00:16:38.381Z,1.83
2023-05-21T00:19:06.451Z,1.88
2023-05-21T00:21:34.349Z,1.90
2023-05-21T00:24:03.622Z,2.00
2023-05-21T00:26:31.576Z,2.03
2023-05-21T00:28:59.561Z,1.95
2023-05-21T00:31:27.590Z,1.77
2023-05-21T00:33:55.526Z,1.60
2023-05-21T00:36:24.186Z,1.60
2023-05-21T00:38:52.600Z,1.73
2023-05-21T00:41:23.085Z,2.10
2023-05-21T00:43:51.030Z,2.42
2023-05-21T00:46:21.020Z,1.55
2023-05-21T00:48:50.514Z,1.63
2023-05-21T00:51:21.946Z,1.92
2023-05-21T00:53:52.576Z,2.00
2023-05-21T00:56:24.114Z,2.13
2023-05-21T00:58:52.924Z,1.63
2023-05-21T01:01:21.113Z,1.65
2023-05-21T01:03:49.174Z,1.80
2023-05-21T01:06:17.207Z,1.88
2023-05-21T01:08:45.508Z,2.17
2023-05-21T01:11:15.075Z,2.20
2023-05-21T01:13:46.085Z,1.77
2023-05-21T01:16:14.694Z,1.90
2023-05-21T01:18:45.332Z,1.98
2023-05-21T01:21:13.713Z,2.08
2023-05-21T01:23:43.314Z,2.10
2023-05-21T01:26:12.921Z,2.33
2023-05-21T01:28:40.854Z,1.88
2023-05-21T01:31:20.937Z,2.35
2023-05-21T01:33:51.102Z,2.03
2023-05-21T01:39:01.511Z,1.95
2023-05-21T01:41:34.343Z,2.30
2023-05-21T01:44:03.538Z,1.63
2023-05-21T01:46:34.731Z,2.05
2023-05-21T01:49:03.806Z,1.75
2023-05-21T01:51:32.046Z,2.15
2023-05-21T01:54:01.489Z,1.75
2023-05-21T01:56:29.633Z,2.05
2023-05-21T01:58:59.699Z,2.70
2023-05-21T02:01:30.210Z,2.03
2023-05-21T02:03:58.513Z,2.20
2023-05-21T02:06:26.513Z,1.88
2023-05-21T02:08:55.670Z,1.90
2023-05-21T02:11:25.059Z,2.00
2023-05-21T02:13:54.537Z,1.60
2023-05-21T02:16:22.676Z,2.10
2023-05-21T02:18:52.308Z,1.95
2023-05-21T02:21:21.231Z,2.05
2023-05-21T02:23:49.179Z,1.77
2023-05-21T02:26:17.870Z,1.95
2023-05-21T02:28:47.201Z,1.98
2023-05-21T02:31:15.077Z,2.28
2023-05-21T02:33:43.493Z,2.13
2023-05-21T02:36:13.226Z,1.80
2023-05-21T02:38:43.803Z,1.75
2023-05-21T02:41:12.226Z,2.10
2023-05-21T02:43:40.222Z,2.00
2023-05-21T02:46:09.730Z,2.10
2023-05-21T02:48:37.707Z,2.00
2023-05-21T02:51:05.713Z,2.10
2023-05-21T02:53:33.819Z,2.40
2023-05-21T02:56:01.761Z,2.13
2023-05-21T02:58:29.718Z,2.22
2023-05-21T03:00:57.687Z,2.15
2023-05-21T03:03:27.157Z,2.13
2023-05-21T03:05:55.234Z,2.08
2023-05-21T03:08:23.298Z,2.00
2023-05-21T03:10:51.302Z,2.28
2023-05-21T03:13:19.304Z,2.33
2023-05-21T03:15:47.649Z,3.72
2023-05-21T03:18:15.564Z,2.42
2023-05-21T03:20:45.502Z,2.30
2023-05-21T03:23:16.464Z,2.70
2023-05-21T03:25:46.119Z,2.72
2023-05-21T03:28:14.208Z,3.50
2023-05-21T03:30:42.105Z,2.17
2023-05-21T03:33:11.234Z,2.00
2023-05-21T03:35:42.459Z,2.20
2023-05-21T03:38:11.865Z,2.00
2023-05-21T03:40:39.783Z,2.93
2023-05-21T03:43:07.743Z,2.30
2023-05-21T03:45:36.692Z,2.40
2023-05-21T03:48:05.763Z,2.60
2023-05-21T03:50:33.629Z,2.50
2023-05-21T03:53:02.117Z,2.58
2023-05-21T03:55:31.413Z,2.10
2023-05-21T03:57:59.308Z,2.30
2023-05-21T04:00:27.222Z,2.10
2023-05-21T04:02:55.436Z,2.53
2023-05-21T04:05:23.487Z,2.80
2023-05-21T04:07:51.575Z,3.00
2023-05-21T04:10:19.605Z,2.83
2023-05-21T04:12:52.666Z,2.28
2023-05-21T04:15:20.852Z,2.50
2023-05-21T04:17:50.358Z,2.38
2023-05-21T04:20:18.596Z,2.50
2023-05-21T04:22:46.634Z,2.38
2023-05-21T04:25:14.648Z,2.78
2023-05-21T04:27:43.596Z,1.98
2023-05-21T04:30:13.775Z,2.60
2023-05-21T04:32:41.880Z,2.60
2023-05-21T04:35:10.273Z,2.38
2023-05-21T04:37:42.219Z,2.50
2023-05-21T04:40:11.187Z,2.30
2023-05-21T04:42:39.191Z,2.40
2023-05-21T04:45:07.819Z,2.28
2023-05-21T04:47:37.803Z,2.38
2023-05-21T04:50:06.717Z,2.60
2023-05-21T04:52:34.983Z,2.30
2023-05-21T04:55:02.990Z,2.47
2023-05-21T04:57:30.949Z,2.15
2023-05-21T04:59:58.934Z,2.33
2023-05-21T05:02:26.851Z,3.30
2023-05-21T05:04:56.797Z,2.35
2023-05-21T05:07:24.700Z,2.15
2023-05-21T05:09:52.546Z,2.13
2023-05-21T05:12:20.484Z,2.15
2023-05-21T05:14:48.424Z,2.20
2023-05-21T05:17:16.437Z,2.20
2023-05-21T05:19:46.335Z,2.40
2023-05-21T05:22:15.884Z,2.60
2023-05-21T05:24:43.784Z,2.17
2023-05-21T05:27:11.719Z,2.08
2023-05-21T05:29:39.672Z,2.53
2023-05-21T05:32:08.904Z,2.10
2023-05-21T05:34:36.871Z,2.63
2023-05-21T05:37:05.015Z,2.88
2023-05-21T05:39:34.369Z,2.17
2023-05-21T05:42:03.489Z,2.88
2023-05-21T05:44:31.346Z,2.60
2023-05-21T05:46:59.309Z,2.15
2023-05-21T05:49:27.252Z,2.45
2023-05-21T05:51:55.151Z,2.70
2023-05-21T05:54:23.099Z,2.53
2023-05-21T05:56:52.344Z,2.53
2023-05-21T05:59:20.307Z,2.45
2023-05-21T06:01:48.287Z,2.28
2023-05-21T06:04:16.395Z,2.10
2023-05-21T06:06:44.362Z,2.08
2023-05-21T06:09:12.323Z,2.20
2023-05-21T06:11:40.323Z,1.95
2023-05-21T06:14:09.618Z,2.10
2023-05-21T06:16:37.556Z,2.33
2023-05-21T06:19:05.756Z,1.60
2023-05-21T06:21:33.901Z,2.20
2023-05-21T06:24:01.821Z,1.85
2023-05-21T06:26:29.759Z,1.30
2023-05-21T06:28:57.688Z,1.98
2023-05-21T06:31:27.009Z,1.80
2023-05-21T06:33:55.292Z,1.83
2023-05-21T06:36:23.256Z,1.73
2023-05-21T06:38:51.103Z,1.67
2023-05-21T06:41:19.050Z,1.52
2023-05-21T06:43:46.978Z,1.70
2023-05-21T06:46:15.014Z,1.45
2023-05-21T06:48:45.925Z,1.80
2023-05-21T06:51:13.902Z,1.50
2023-05-21T06:53:41.872Z,1.27
2023-05-21T06:56:09.865Z,1.25
2023-05-21T06:58:37.788Z,1.45
2023-05-21T07:01:05.991Z,1.10
2023-05-21T07:03:34.033Z,0.90
2023-05-21T07:06:03.553Z,1.58
2023-05-21T07:08:31.451Z,1.30
2023-05-21T07:10:59.369Z,1.05
2023-05-21T07:13:27.305Z,1.85
2023-05-21T07:15:55.337Z,1.25
2023-05-21T07:18:23.476Z,1.27
2023-05-21T07:20:51.442Z,1.20
2023-05-21T07:23:21.340Z,1.35
2023-05-21T07:25:49.377Z,1.20
2023-05-21T07:28:17.345Z,1.30
2023-05-21T07:30:45.284Z,1.15
2023-05-21T07:33:13.777Z,1.23
2023-05-21T07:35:42.124Z,1.23
2023-05-21T07:38:10.094Z,1.10
2023-05-21T07:40:39.417Z,1.38
2023-05-21T07:43:07.377Z,1.27
2023-05-21T07:45:35.523Z,1.40
2023-05-21T07:48:03.729Z,1.23
2023-05-21T07:50:31.766Z,1.23
2023-05-21T07:52:59.773Z,1.10
2023-05-21T07:55:27.775Z,1.23
2023-05-21T07:57:57.234Z,1.13
2023-05-21T08:00:25.854Z,1.27
2023-05-21T08:02:53.937Z,1.90
2023-05-21T08:05:23.566Z,1.40
2023-05-21T08:07:51.547Z,1.63
2023-05-21T08:10:19.791Z,1.60
2023-05-21T08:12:47.695Z,1.38
2023-05-21T08:15:17.129Z,1.10
2023-05-21T08:17:45.055Z,1.20
2023-05-21T08:20:14.489Z,1.35
2023-05-21T08:22:43.702Z,1.40
2023-05-21T08:25:11.762Z,1.08
2023-05-21T08:27:39.656Z,1.15
2023-05-21T08:30:10.452Z,1.52
2023-05-21T08:32:39.901Z,1.33
2023-05-21T08:35:08.777Z,1.10
2023-05-21T08:37:36.816Z,1.48
2023-05-21T08:40:06.085Z,1.00
2023-05-21T08:42:40.620Z,1.13
2023-05-21T08:45:09.764Z,1.13
2023-05-21T08:47:41.464Z,1.30
2023-05-21T08:50:12.144Z,1.25
2023-05-21T08:52:40.528Z,1.23
2023-05-21T08:55:10.279Z,1.42
2023-05-21T08:57:39.221Z,1.55
2023-05-21T09:00:08.775Z,1.30
2023-05-21T09:02:40.783Z,1.40
2023-05-21T09:05:11.440Z,1.33
2023-05-21T09:07:45.128Z,1.30
2023-05-21T09:10:14.684Z,1.50
2023-05-21T09:12:43.241Z,1.30
2023-05-21T09:15:12.025Z,1.30
2023-05-21T09:17:39.898Z,1.75
2023-05-21T09:20:12.437Z,1.63
2023-05-21T09:22:43.287Z,1.05
2023-05-21T09:25:11.902Z,1.67
2023-05-21T09:27:40.625Z,1.40
2023-05-21T09:30:12.161Z,1.30
2023-05-21T09:32:40.304Z,1.40
2023-05-21T09:35:12.141Z,1.50
2023-05-21T09:37:40.759Z,1.40
2023-05-21T09:40:13.798Z,1.20
2023-05-21T09:42:42.425Z,1.42
2023-05-21T09:45:11.460Z,1.70
2023-05-21T09:47:44.470Z,1.67
2023-05-21T09:50:14.580Z,1.10
2023-05-21T09:52:42.574Z,1.48
2023-05-21T09:55:13.413Z,1.40
2023-05-21T09:57:45.070Z,1.40
2023-05-21T10:00:20.198Z,1.45
2023-05-21T10:02:49.537Z,1.38
2023-05-21T10:05:18.982Z,1.90
2023-05-21T10:07:51.414Z,1.27
2023-05-21T10:10:22.790Z,1.67
2023-05-21T10:12:56.531Z,1.45
2023-05-21T10:15:25.959Z,1.80
2023-05-21T10:17:56.320Z,1.55
2023-05-21T10:22:54.443Z,1.42
2023-05-21T10:25:23.088Z,1.70
2023-05-21T10:27:51.056Z,1.70
2023-05-21T10:30:19.822Z,1.67
2023-05-21T10:32:49.235Z,1.55
2023-05-21T10:35:17.850Z,1.33
2023-05-21T10:37:47.278Z,1.70
2023-05-21T10:40:15.674Z,1.83
2023-05-21T10:43:12.492Z,1.77
2023-05-21T10:45:55.370Z,1.23
2023-05-21T10:48:52.029Z,1.00
2023-05-21T10:51:24.952Z,1.80
2023-05-21T10:54:28.654Z,1.50
2023-05-21T10:57:06.188Z,1.52
2023-05-21T10:59:41.556Z,1.80
2023-05-21T11:02:12.682Z,1.70
2023-05-21T11:04:43.400Z,1.50
2023-05-21T11:07:13.297Z,1.92
2023-05-21T11:09:42.648Z,1.48
2023-05-21T11:12:12.941Z,1.70
2023-05-21T11:14:43.130Z,1.50
2023-05-21T11:17:14.852Z,1.52
2023-05-21T11:19:44.442Z,1.75
2023-05-21T11:22:23.216Z,1.70
2023-05-21T11:24:53.638Z,1.95
2023-05-21T11:30:06.670Z,1.58
2023-05-21T11:32:38.896Z,1.40
2023-05-21T11:35:08.218Z,1.70
2023-05-21T11:37:37.838Z,1.45
2023-05-21T11:40:21.595Z,1.90
2023-05-21T11:42:52.083Z,2.03
2023-05-21T11:47:49.440Z,1.40
2023-05-21T11:50:18.286Z,1.50
2023-05-21T11:52:46.722Z,1.67
2023-05-21T11:55:16.273Z,2.00
2023-05-21T11:57:48.026Z,1.57
2023-05-21T12:00:17.310Z,1.70
2023-05-21T12:02:47.440Z,1.70
2023-05-21T12:05:15.801Z,1.60
2023-05-21T12:07:43.950Z,2.00
2023-05-21T12:10:13.177Z,2.15
2023-05-21T12:12:53.913Z,1.80
2023-05-21T12:15:26.396Z,1.88
2023-05-21T12:20:23.309Z,1.80
2023-05-21T12:22:51.340Z,1.92
2023-05-21T12:25:21.261Z,2.08
2023-05-21T12:27:52.802Z,1.85
2023-05-21T12:30:23.160Z,2.17
2023-05-21T12:32:52.549Z,2.00
2023-05-21T12:35:24.984Z,2.08
2023-05-21T12:37:53.291Z,2.05
2023-05-21T12:40:22.319Z,1.85
2023-05-21T12:42:51.731Z,1.95
2023-05-21T12:45:22.111Z,1.60
2023-05-21T12:47:56.035Z,2.20
2023-05-21T12:50:25.787Z,2.25
2023-05-21T12:52:57.173Z,2.10
2023-05-21T12:55:26.500Z,2.22
2023-05-21T12:58:03.693Z,2.45
2023-05-21T13:00:33.161Z,2.38
2023-05-21T13:03:02.031Z,2.58
2023-05-21T13:05:31.800Z,2.58
2023-05-21T13:07:59.878Z,2.13
2023-05-21T13:10:27.806Z,2.75
2023-05-21T13:12:55.816Z,2.20
2023-05-21T13:15:23.821Z,2.65
2023-05-21T13:17:53.186Z,2.42
2023-05-21T13:20:26.550Z,2.15
2023-05-21T13:22:56.217Z,3.05
2023-05-21T13:25:29.073Z,2.70
2023-05-21T13:27:58.091Z,2.60
2023-05-21T13:30:26.314Z,2.70
2023-05-21T13:32:54.646Z,2.75
2023-05-21T13:35:22.976Z,3.35
2023-05-21T13:37:50.933Z,3.20
2023-05-21T13:40:20.408Z,2.47
2023-05-21T13:42:50.017Z,3.13
2023-05-21T13:45:19.903Z,2.88
2023-05-21T13:47:49.047Z,3.03
2023-05-21T13:50:17.715Z,2.63
2023-05-21T13:52:46.343Z,2.80
2023-05-21T13:55:15.877Z,3.10
2023-05-21T13:57:46.039Z,3.00
2023-05-21T14:00:16.139Z,2.65
2023-05-21T14:02:45.344Z,2.53
2023-05-21T14:05:13.776Z,2.58
2023-05-21T14:07:42.165Z,2.92
2023-05-21T14:10:11.250Z,2.60
2023-05-21T14:12:39.183Z,3.13
2023-05-21T14:15:09.332Z,2.83
2023-05-21T14:17:37.326Z,2.00
2023-05-21T14:20:06.333Z,3.28
2023-05-21T14:22:34.279Z,2.55
2023-05-21T14:25:03.201Z,2.42
2023-05-21T14:27:31.107Z,2.60
2023-05-21T14:29:59.044Z,3.28
2023-05-21T14:32:28.470Z,2.95
2023-05-21T14:34:56.827Z,2.63
2023-05-21T14:37:24.764Z,3.35
2023-05-21T14:39:52.720Z,2.47
2023-05-21T14:42:20.649Z,2.90
2023-05-21T14:44:49.214Z,3.03
2023-05-21T14:47:17.254Z,2.60
2023-05-21T14:49:46.728Z,3.58
2023-05-21T14:52:14.661Z,2.90
2023-05-21T14:54:42.662Z,3.03
2023-05-21T14:57:10.826Z,2.80
2023-05-21T14:59:38.777Z,2.78
2023-05-21T15:02:06.983Z,3.15
2023-05-21T15:04:35.025Z,3.13
2023-05-21T15:07:04.424Z,3.00
2023-05-21T15:09:32.295Z,3.53
2023-05-21T15:12:00.292Z,3.05
2023-05-21T15:14:28.187Z,2.75
2023-05-21T15:16:56.119Z,2.97
2023-05-21T15:19:24.147Z,3.03
2023-05-21T15:21:52.572Z,3.42
2023-05-21T15:24:21.929Z,2.92
2023-05-21T15:26:49.886Z,2.60
2023-05-21T15:29:17.788Z,2.85
2023-05-21T15:31:45.679Z,2.50
2023-05-21T15:34:13.767Z,3.42
2023-05-21T15:36:41.962Z,3.00
2023-05-21T15:39:09.926Z,2.97
2023-05-21T15:41:39.213Z,2.97
2023-05-21T15:44:07.159Z,2.40
2023-05-21T15:46:35.249Z,2.78
2023-05-21T15:49:03.219Z,2.83
2023-05-21T15:51:31.284Z,3.17
2023-05-21T15:53:59.200Z,2.70
2023-05-21T15:56:27.416Z,2.58
2023-05-21T15:58:58.695Z,2.70
2023-05-21T16:01:28.175Z,2.50
2023-05-21T16:03:56.338Z,3.42
2023-05-21T16:06:24.337Z,2.80
2023-05-21T16:08:52.308Z,2.92
2023-05-21T16:11:20.334Z,3.20
2023-05-21T16:13:48.227Z,3.13
2023-05-21T16:16:17.565Z,2.40
2023-05-21T16:18:45.598Z,2.63
2023-05-21T16:21:13.918Z,2.80
2023-05-21T16:23:42.007Z,2.97
2023-05-21T16:26:10.800Z,2.33
2023-05-21T16:28:39.019Z,3.03
2023-05-21T16:31:07.128Z,2.50
2023-05-21T16:33:36.517Z,2.40
2023-05-21T16:36:04.483Z,2.30
2023-05-21T16:38:32.566Z,2.35
2023-05-21T16:41:00.676Z,2.95
2023-05-21T16:43:28.611Z,2.97
2023-05-21T16:45:56.454Z,2.22
2023-05-21T16:48:24.349Z,2.10
2023-05-21T16:50:53.645Z,2.90
2023-05-21T16:53:21.789Z,2.53
2023-05-21T16:55:49.864Z,2.65
2023-05-21T16:58:19.086Z,2.17
2023-05-21T17:00:47.389Z,2.90
2023-05-21T17:03:16.136Z,2.60
2023-05-21T17:05:44.330Z,2.42
2023-05-21T17:08:13.624Z,3.08
2023-05-21T17:10:41.474Z,2.65
2023-05-21T17:13:18.316Z,2.47
2023-05-21T17:15:50.892Z,2.50
2023-05-21T17:18:19.150Z,2.63
2023-05-21T17:20:47.078Z,2.60
2023-05-21T17:23:16.610Z,2.80
2023-05-21T17:25:45.859Z,2.72
2023-05-21T17:28:13.875Z,2.38
2023-05-21T17:30:41.845Z,2.60
2023-05-21T17:33:10.522Z,2.45
2023-05-21T17:35:38.981Z,2.50
2023-05-21T17:38:07.288Z,2.53
2023-05-21T17:40:36.690Z,2.58
2023-05-21T17:43:07.222Z,2.90
2023-05-21T17:45:35.663Z,2.30
2023-05-21T17:48:04.015Z,2.72
2023-05-21T17:50:32.028Z,2.22
2023-05-21T17:53:00.456Z,2.05
2023-05-21T17:55:28.377Z,2.20
2023-05-21T17:57:57.660Z,2.50
2023-05-21T18:00:25.862Z,2.63
2023-05-21T18:02:53.874Z,2.53
2023-05-21T18:05:22.826Z,2.05
2023-05-21T18:07:51.174Z,1.98
2023-05-21T18:10:19.179Z,1.83
2023-05-21T18:12:47.274Z,2.60
2023-05-21T18:15:17.233Z,2.80
2023-05-21T18:17:45.544Z,2.55
2023-05-21T18:20:14.869Z,2.22
2023-05-21T18:22:42.865Z,2.50
2023-05-21T18:25:11.389Z,2.17
2023-05-21T18:27:39.344Z,2.25
2023-05-21T18:30:08.645Z,2.45
2023-05-21T18:32:39.456Z,2.42
2023-05-21T18:35:11.154Z,2.90
2023-05-21T18:37:42.169Z,3.10
2023-05-21T18:40:11.256Z,2.42
2023-05-21T18:42:39.174Z,2.50
2023-05-21T18:45:08.001Z,1.88
2023-05-21T18:47:39.075Z,1.77
2023-05-21T18:50:08.940Z,1.90
2023-05-21T18:52:36.991Z,1.60
2023-05-21T18:55:05.606Z,1.92
2023-05-21T18:57:35.080Z,2.25
2023-05-21T19:00:03.393Z,1.83
2023-05-21T19:02:31.643Z,1.70
2023-05-21T19:05:01.968Z,2.60
2023-05-21T19:10:00.201Z,2.20
2023-05-21T19:12:29.504Z,1.92
2023-05-21T19:14:57.742Z,2.05
2023-05-21T19:17:25.997Z,2.28
2023-05-21T19:19:56.238Z,2.22
2023-05-21T19:22:26.994Z,1.77
2023-05-21T19:24:55.640Z,2.25
2023-05-21T19:27:23.933Z,1.88
2023-05-21T19:29:52.853Z,2.28
2023-05-21T19:32:23.761Z,2.30
2023-05-21T19:34:52.331Z,2.15
2023-05-21T19:37:20.728Z,1.95
2023-05-21T19:39:50.533Z,2.17
2023-05-21T19:42:21.638Z,1.80
2023-05-21T19:44:50.003Z,2.20
2023-05-21T19:47:18.193Z,1.98
2023-05-21T19:49:46.573Z,2.20
2023-05-21T19:52:14.571Z,2.10
2023-05-21T19:54:42.707Z,1.95
2023-05-21T19:57:13.324Z,2.28
2023-05-21T19:59:41.284Z,2.15
2023-05-21T20:02:13.313Z,2.28
2023-05-21T20:04:41.563Z,2.00
2023-05-21T20:07:09.481Z,2.63
2023-05-21T20:09:37.474Z,2.47
2023-05-21T20:12:06.219Z,2.10
2023-05-21T20:14:35.673Z,2.22
2023-05-21T20:17:05.621Z,2.08
2023-05-21T20:19:33.971Z,2.20
2023-05-21T20:22:02.057Z,3.05
2023-05-21T20:24:29.948Z,2.22
2023-05-21T20:26:57.957Z,2.58
2023-05-21T20:29:26.026Z,2.35
2023-05-21T20:31:55.374Z,2.67
2023-05-21T20:34:24.589Z,1.88
2023-05-21T20:36:52.828Z,2.33
2023-05-21T20:39:22.134Z,2.40
2023-05-21T20:41:50.230Z,2.20
2023-05-21T20:44:18.871Z,2.53
2023-05-21T20:46:47.773Z,2.30
2023-05-21T20:49:17.790Z,2.30
2023-05-21T20:51:45.824Z,2.10
2023-05-21T20:54:14.162Z,2.50
2023-05-21T20:56:44.992Z,2.17
2023-05-21T20:59:13.044Z,2.10
2023-05-21T21:01:41.736Z,1.95
2023-05-21T21:04:09.964Z,2.38
2023-05-21T21:06:40.362Z,2.20
2023-05-21T21:11:37.007Z,2.42
2023-05-21T21:14:05.051Z,2.17
2023-05-21T21:16:33.142Z,2.05
2023-05-21T21:19:01.571Z,1.92
2023-05-21T21:21:29.886Z,1.92
2023-05-21T21:23:59.283Z,2.10
2023-05-21T21:26:27.338Z,2.67
2023-05-21T21:28:56.337Z,2.30
2023-05-21T21:31:25.077Z,2.42
2023-05-21T21:33:53.287Z,2.20
2023-05-21T21:36:21.376Z,3.47
2023-05-21T21:38:49.390Z,2.75
2023-05-21T21:41:20.392Z,3.30
2023-05-21T21:43:48.352Z,2.67
2023-05-21T21:46:16.723Z,2.50
2023-05-21T21:48:44.838Z,2.30
2023-05-21T21:51:14.064Z,2.70
2023-05-21T21:53:42.165Z,2.40
2023-05-21T21:56:10.446Z,2.90
2023-05-21T21:58:39.797Z,2.28
2023-05-21T22:01:07.760Z,2.25
2023-05-21T22:03:35.791Z,2.13
2023-05-21T22:06:03.837Z,2.13
2023-05-21T22:08:31.791Z,2.80
2023-05-21T22:11:01.939Z,2.20
2023-05-21T22:13:30.254Z,2.60
2023-05-21T22:15:59.680Z,2.20
2023-05-21T22:18:38.924Z,2.55
2023-05-21T22:21:10.030Z,2.92
2023-05-21T22:23:38.932Z,2.50
2023-05-21T22:26:07.210Z,2.13
2023-05-21T22:28:35.219Z,2.63
2023-05-21T22:31:04.951Z,2.60
2023-05-21T22:33:32.975Z,2.05
2023-05-21T22:36:02.226Z,3.05
2023-05-21T22:38:30.145Z,2.40
2023-05-21T22:40:58.119Z,3.17
2023-05-21T22:43:26.958Z,2.72
2023-05-21T22:45:54.827Z,2.72
2023-05-21T22:48:24.143Z,2.80
2023-05-21T22:50:53.622Z,2.05
2023-05-21T22:53:21.864Z,3.10
2023-05-21T22:55:50.104Z,2.35
2023-05-21T22:58:18.433Z,2.33
2023-05-21T23:00:46.915Z,2.90
2023-05-21T23:03:14.885Z,2.50
2023-05-21T23:05:44.488Z,2.05
2023-05-21T23:08:12.735Z,2.53
2023-05-21T23:10:40.992Z,2.30
2023-05-21T23:13:09.340Z,2.70
2023-05-21T23:15:38.884Z,2.50
2023-05-21T23:18:07.762Z,2.63
2023-05-21T23:20:36.701Z,2.53
2023-05-21T23:23:08.939Z,2.80
2023-05-21T23:25:36.931Z,2.70
2023-05-21T23:28:04.959Z,2.83
2023-05-21T23:30:32.891Z,2.50
2023-05-21T23:33:01.170Z,2.00
2023-05-21T23:35:29.315Z,2.80
2023-05-21T23:37:57.273Z,2.25
2023-05-21T23:40:26.821Z,2.50
2023-05-21T23:42:54.785Z,2.67
2023-05-21T23:45:22.815Z,2.50
2023-05-21T23:47:50.797Z,2.35
2023-05-21T23:50:18.907Z,2.95
2023-05-21T23:52:46.882Z,2.40
2023-05-21T23:55:14.932Z,2.15
2023-05-21T23:57:44.361Z,2.72
